Time;durP1;ratioP1;P1;durP2;ratioP2;P2;SDS_P1;SDS_P2;PMS_P1;PMS_P2;Temp;Humidity;BMP_temperature;BMP_pressure;BME280_temperature;BME280_humidity;BME280_pressure;Samples;Min_cycle;Max_cycle;Signal;HPM_P1;HPM_P2
2022/07/02 00:01:00;;;;;;;1.83;1.40;;;;;;;;;;6018553;29;20053;-88
2022/07/02 00:04:04;;;;;;;2.40;1.88;;;;;;;;;;6014097;29;20784;-88
2022/07/02 00:07:07;;;;;;;2.45;1.70;;;;;;;;;;6018068;29;20155;-86
2022/07/02 00:10:10;;;;;;;1.75;1.52;;;;;;;;;;6020808;29;20057;-85
2022/07/02 00:13:12;;;;;;;1.73;1.63;;;;;;;;;;6000437;29;20128;-89
2022/07/02 00:16:14;;;;;;;2.05;1.40;;;;;;;;;;6006487;29;20599;-86
2022/07/02 00:19:16;;;;;;;2.10;1.60;;;;;;;;;;6031101;29;20396;-87
2022/07/02 00:22:18;;;;;;;2.47;1.63;;;;;;;;;;6020799;29;20052;-87
2022/07/02 00:25:22;;;;;;;2.30;1.38;;;;;;;;;;6003813;29;20160;-87
2022/07/02 00:28:26;;;;;;;7.05;2.10;;;;;;;;;;6015854;29;20193;-86
2022/07/02 00:31:28;;;;;;;1.98;1.40;;;;;;;;;;6019037;29;20060;-89
2022/07/02 00:34:32;;;;;;;1.70;1.40;;;;;;;;;;5999164;29;20429;-87
2022/07/02 00:37:34;;;;;;;;;;;;;;;;;;6005759;29;20127;-89
2022/07/02 00:40:37;;;;;;;4.53;2.65;;;;;;;;;;6016895;29;19943;-87
2022/07/02 00:43:39;;;;;;;2.45;1.60;;;;;;;;;;6027169;29;20052;-90
2022/07/02 00:46:42;;;;;;;1.70;1.60;;;;;;;;;;6018250;29;20053;-88
2022/07/02 00:49:50;;;;;;;2.08;1.20;;;;;;;;;;6003263;29;20067;-89
2022/07/02 00:52:51;;;;;;;2.30;1.50;;;;;;;;;;6008852;29;20120;-89
2022/07/02 00:55:57;;;;;;;1.85;1.50;;;;;;;;;;6005370;29;20064;-86
2022/07/02 00:59:01;;;;;;;2.60;1.83;;;;;;;;;;6008316;29;20730;-88
2022/07/02 01:02:04;;;;;;;1.73;1.63;;;;;;;;;;6021355;29;20052;-89
2022/07/02 01:05:07;;;;;;;1.60;1.50;;;;;;;;;;6008394;29;20061;-89
2022/07/02 01:11:32;;;;;;;1.70;1.60;;;;;;;;;;6024612;29;20504;-87
2022/07/02 01:14:34;;;;;;;1.52;1.42;;;;;;;;;;6006172;29;20117;-86
2022/07/02 01:17:36;;;;;;;1.88;1.65;;;;;;;;;;6020664;29;20081;-87
2022/07/02 01:20:38;;;;;;;2.88;1.95;;;;;;;;;;6017116;29;20041;-89
2022/07/02 01:23:40;;;;;;;1.98;1.75;;;;;;;;;;6014816;29;20510;-89
2022/07/02 01:26:41;;;;;;;3.53;1.98;;;;;;;;;;6003141;29;20613;-87
2022/07/02 01:29:43;;;;;;;3.38;1.80;;;;;;;;;;6005781;29;20526;-87
2022/07/02 01:32:45;;;;;;;2.53;1.85;;;;;;;;;;6017559;29;20077;-87
2022/07/02 01:35:47;;;;;;;4.78;1.83;;;;;;;;;;6006492;29;20156;-88
2022/07/02 01:38:49;;;;;;;2.45;1.65;;;;;;;;;;6013865;29;20037;-87
2022/07/02 01:41:51;;;;;;;2.42;1.33;;;;;;;;;;6010374;29;20059;-89
2022/07/02 01:44:53;;;;;;;2.00;1.67;;;;;;;;;;6020550;29;20056;-88
2022/07/02 01:47:55;;;;;;;2.20;1.60;;;;;;;;;;6012238;29;20037;-88
2022/07/02 01:50:56;;;;;;;3.00;1.75;;;;;;;;;;6017517;29;20558;-85
2022/07/02 01:53:58;;;;;;;4.43;2.10;;;;;;;;;;6011913;29;20059;-85
2022/07/02 01:57:01;;;;;;;2.22;2.00;;;;;;;;;;6010302;29;20128;-88
2022/07/02 02:00:08;;;;;;;3.50;1.92;;;;;;;;;;6036218;29;20416;-86
2022/07/02 02:03:10;;;;;;;2.65;1.90;;;;;;;;;;6000152;29;20069;-86
2022/07/02 02:06:12;;;;;;;2.47;1.90;;;;;;;;;;6004330;29;20195;-88
2022/07/02 02:09:14;;;;;;;3.03;1.98;;;;;;;;;;6010390;29;20063;-88
2022/07/02 02:12:16;;;;;;;2.17;1.90;;;;;;;;;;6020713;29;20048;-88
2022/07/02 02:15:18;;;;;;;2.65;1.77;;;;;;;;;;5998379;29;20069;-88
2022/07/02 02:18:19;;;;;;;2.17;1.40;;;;;;;;;;6019752;29;20056;-88
2022/07/02 02:21:22;;;;;;;2.80;1.85;;;;;;;;;;6020429;29;20072;-89
2022/07/02 02:24:24;;;;;;;2.90;1.88;;;;;;;;;;6021680;29;20493;-86
2022/07/02 02:27:25;;;;;;;2.53;1.80;;;;;;;;;;6002067;29;20831;-88
2022/07/02 02:30:27;;;;;;;2.55;2.35;;;;;;;;;;6020991;29;20561;-85
2022/07/02 02:33:29;;;;;;;1.92;1.83;;;;;;;;;;6004556;29;20053;-88
2022/07/02 02:36:31;;;;;;;3.20;1.90;;;;;;;;;;6008200;29;20049;-88
2022/07/02 02:39:33;;;;;;;1.83;1.50;;;;;;;;;;6037717;29;20145;-90
2022/07/02 02:42:36;;;;;;;2.78;2.30;;;;;;;;;;6023470;29;20052;-87
2022/07/02 02:45:37;;;;;;;5.13;1.80;;;;;;;;;;6022093;29;20068;-87
2022/07/02 02:48:39;;;;;;;3.83;2.10;;;;;;;;;;6022770;29;20041;-90
2022/07/02 02:51:41;;;;;;;4.05;1.67;;;;;;;;;;6011234;29;20129;-90
2022/07/02 02:54:44;;;;;;;2.28;2.08;;;;;;;;;;6012607;29;20068;-90
2022/07/02 02:57:46;;;;;;;3.33;1.88;;;;;;;;;;6027611;29;20166;-90
2022/07/02 03:00:47;;;;;;;3.22;2.05;;;;;;;;;;6013000;29;20045;-90
2022/07/02 03:03:49;;;;;;;3.00;1.70;;;;;;;;;;6027526;29;20143;-87
2022/07/02 03:06:51;;;;;;;2.65;1.83;;;;;;;;;;6045174;29;20057;-88
2022/07/02 03:09:53;;;;;;;2.67;1.67;;;;;;;;;;5997074;29;20048;-89
2022/07/02 03:12:58;;;;;;;3.08;2.08;;;;;;;;;;6011483;29;20070;-87
2022/07/02 03:16:00;;;;;;;3.38;1.63;;;;;;;;;;6017755;29;20052;-88
2022/07/02 03:19:02;;;;;;;4.13;1.80;;;;;;;;;;6065546;29;20116;-88
2022/07/02 03:22:04;;;;;;;1.83;1.73;;;;;;;;;;6053417;29;20081;-88
2022/07/02 03:25:07;;;;;;;3.55;1.92;;;;;;;;;;6052829;29;20522;-88
2022/07/02 03:28:09;;;;;;;;;;;;;;;;;;6067993;29;20032;-89
2022/07/02 03:31:11;;;;;;;3.40;1.98;;;;;;;;;;6066734;29;19912;-88
2022/07/02 03:34:12;;;;;;;5.10;2.20;;;;;;;;;;6065932;29;20067;-87
2022/07/02 03:37:14;;;;;;;2.45;1.73;;;;;;;;;;6037519;29;20044;-87
2022/07/02 03:40:16;;;;;;;2.00;1.90;;;;;;;;;;6043334;29;20033;-88
2022/07/02 03:43:18;;;;;;;3.17;1.92;;;;;;;;;;6035904;29;20048;-85
2022/07/02 03:46:20;;;;;;;2.83;2.15;;;;;;;;;;6051572;29;20078;-85
2022/07/02 03:49:21;;;;;;;3.22;2.00;;;;;;;;;;6034588;29;20037;-85
2022/07/02 03:52:23;;;;;;;2.38;2.17;;;;;;;;;;6039164;29;20037;-86
2022/07/02 03:55:25;;;;;;;2.20;2.00;;;;;;;;;;6028828;29;20310;-87
2022/07/02 03:58:26;;;;;;;2.72;2.15;;;;;;;;;;6041931;29;20085;-86
2022/07/02 04:01:35;;;;;;;4.05;2.30;;;;;;;;;;6030302;29;20049;-87
2022/07/02 04:04:36;;;;;;;3.47;2.10;;;;;;;;;;6021871;29;20108;-87
2022/07/02 04:07:39;;;;;;;2.67;2.17;;;;;;;;;;6012424;29;20048;-87
2022/07/02 04:10:41;;;;;;;2.75;2.30;;;;;;;;;;6023311;29;20064;-86
2022/07/02 04:13:43;;;;;;;2.85;2.40;;;;;;;;;;6050789;29;20090;-88
2022/07/02 04:16:45;;;;;;;3.63;2.00;;;;;;;;;;6002023;29;20081;-86
2022/07/02 04:19:47;;;;;;;3.80;2.30;;;;;;;;;;6015134;29;20074;-87
2022/07/02 04:22:48;;;;;;;2.83;2.33;;;;;;;;;;6028963;29;20053;-88
2022/07/02 04:25:50;;;;;;;3.42;2.65;;;;;;;;;;6007267;29;20633;-85
2022/07/02 04:28:52;;;;;;;4.32;2.70;;;;;;;;;;6013287;29;20097;-86
2022/07/02 04:31:54;;;;;;;3.40;2.30;;;;;;;;;;6027161;29;20072;-87
2022/07/02 04:34:55;;;;;;;3.47;2.30;;;;;;;;;;6026248;29;20116;-85
2022/07/02 04:37:57;;;;;;;3.05;2.50;;;;;;;;;;6026760;29;20073;-88
2022/07/02 04:40:59;;;;;;;3.35;2.50;;;;;;;;;;6011381;29;20482;-87
2022/07/02 04:44:01;;;;;;;3.60;3.10;;;;;;;;;;6034502;29;20041;-86
2022/07/02 04:47:02;;;;;;;3.70;2.95;;;;;;;;;;6031174;29;20056;-88
2022/07/02 04:50:05;;;;;;;3.85;2.80;;;;;;;;;;6031870;29;20041;-86
2022/07/02 04:53:06;;;;;;;3.13;2.80;;;;;;;;;;6029836;29;20084;-87
2022/07/02 04:56:08;;;;;;;3.35;2.67;;;;;;;;;;6041585;29;20041;-85
2022/07/02 04:59:10;;;;;;;4.25;3.00;;;;;;;;;;6056765;29;20052;-85
2022/07/02 05:02:12;;;;;;;2.90;2.70;;;;;;;;;;6048271;29;20052;-88
2022/07/02 05:05:14;;;;;;;3.92;2.55;;;;;;;;;;6020314;29;20041;-85
2022/07/02 05:08:15;;;;;;;4.22;2.75;;;;;;;;;;6020634;29;20457;-88
2022/07/02 05:11:19;;;;;;;5.72;3.20;;;;;;;;;;6028542;29;20053;-88
2022/07/02 05:14:21;;;;;;;3.67;2.92;;;;;;;;;;6018370;29;20061;-88
2022/07/02 05:17:23;;;;;;;4.22;2.97;;;;;;;;;;6042619;29;20165;-87
2022/07/02 05:20:25;;;;;;;3.88;3.08;;;;;;;;;;6014201;29;20044;-85
2022/07/02 05:23:27;;;;;;;3.55;3.00;;;;;;;;;;6032964;29;20049;-88
2022/07/02 05:26:28;;;;;;;3.72;2.83;;;;;;;;;;6029191;29;20041;-86
2022/07/02 05:29:30;;;;;;;3.10;2.80;;;;;;;;;;6009455;29;20109;-86
2022/07/02 05:32:32;;;;;;;5.90;3.20;;;;;;;;;;6027079;29;20125;-88
2022/07/02 05:35:34;;;;;;;3.45;3.10;;;;;;;;;;6018459;29;20105;-85
2022/07/02 05:38:35;;;;;;;3.65;2.92;;;;;;;;;;6034372;29;20048;-87
2022/07/02 05:41:37;;;;;;;4.82;3.00;;;;;;;;;;6010332;29;20061;-89
2022/07/02 05:44:39;;;;;;;4.28;2.80;;;;;;;;;;6030063;29;20124;-88
2022/07/02 05:47:42;;;;;;;3.53;2.65;;;;;;;;;;6025974;29;20056;-87
2022/07/02 05:50:44;;;;;;;3.00;2.53;;;;;;;;;;6006603;29;20081;-90
2022/07/02 05:53:46;;;;;;;4.35;2.88;;;;;;;;;;6032447;29;20049;-89
2022/07/02 05:56:47;;;;;;;3.58;2.33;;;;;;;;;;6029640;29;20053;-88
2022/07/02 05:59:49;;;;;;;3.13;2.40;;;;;;;;;;6030713;29;20733;-87
2022/07/02 06:02:51;;;;;;;3.22;2.60;;;;;;;;;;6028484;29;20128;-89
2022/07/02 06:09:13;;;;;;;2.33;2.10;;;;;;;;;;6038689;29;20513;-87
2022/07/02 06:12:14;;;;;;;2.65;2.05;;;;;;;;;;6019086;29;20523;-87
2022/07/02 06:15:17;;;;;;;2.33;2.10;;;;;;;;;;6007631;29;20615;-86
2022/07/02 06:18:19;;;;;;;4.47;2.10;;;;;;;;;;6025440;29;20187;-87
2022/07/02 06:21:20;;;;;;;2.38;2.00;;;;;;;;;;6027670;29;20081;-86
2022/07/02 06:24:22;;;;;;;1.90;1.80;;;;;;;;;;5997504;29;20792;-87
2022/07/02 06:27:24;;;;;;;2.00;1.70;;;;;;;;;;6010362;29;20045;-88
2022/07/02 06:30:26;;;;;;;3.28;2.10;;;;;;;;;;6014805;29;20082;-87
2022/07/02 06:33:27;;;;;;;4.40;1.90;;;;;;;;;;6006504;29;20081;-86
2022/07/02 06:36:29;;;;;;;2.80;1.88;;;;;;;;;;6000347;29;20430;-87
2022/07/02 06:39:31;;;;;;;2.80;1.80;;;;;;;;;;6020271;29;20126;-84
2022/07/02 06:42:33;;;;;;;2.50;1.80;;;;;;;;;;6020229;29;20084;-88
2022/07/02 06:45:35;;;;;;;1.70;1.60;;;;;;;;;;6037095;29;20233;-89
2022/07/02 06:48:37;;;;;;;2.28;1.70;;;;;;;;;;6000184;29;20085;-87
2022/07/02 06:51:39;;;;;;;2.55;1.80;;;;;;;;;;6011493;29;20045;-87
2022/07/02 06:54:44;;;;;;;2.85;1.60;;;;;;;;;;6001231;29;20056;-87
2022/07/02 06:57:49;;;;;;;3.20;1.65;;;;;;;;;;5978382;29;20117;-85
2022/07/02 07:00:51;;;;;;;2.22;1.58;;;;;;;;;;6004094;29;20159;-84
2022/07/02 07:03:53;;;;;;;1.88;1.70;;;;;;;;;;6017241;29;20056;-85
2022/07/02 07:06:56;;;;;;;2.35;1.70;;;;;;;;;;6037589;29;20055;-85
2022/07/02 07:09:58;;;;;;;3.28;1.70;;;;;;;;;;6032181;29;20072;-85
2022/07/02 07:13:00;;;;;;;1.83;1.60;;;;;;;;;;6040918;29;20073;-84
2022/07/02 07:16:02;;;;;;;3.33;1.50;;;;;;;;;;6047339;29;20053;-83
2022/07/02 07:19:07;;;;;;;2.35;1.42;;;;;;;;;;6037410;29;20036;-87
2022/07/02 07:22:15;;;;;;;1.70;1.60;;;;;;;;;;6059207;29;20084;-87
2022/07/02 07:25:17;;;;;;;3.65;1.52;;;;;;;;;;6045889;29;20069;-87
2022/07/02 07:28:19;;;;;;;4.30;3.50;;;;;;;;;;6032671;29;20047;-86
2022/07/02 07:31:21;;;;;;;1.88;1.30;;;;;;;;;;6052917;29;20056;-86
2022/07/02 07:34:22;;;;;;;3.42;1.60;;;;;;;;;;6035655;29;20053;-87
2022/07/02 07:37:24;;;;;;;1.83;1.30;;;;;;;;;;6029990;29;20056;-88
2022/07/02 07:40:26;;;;;;;1.98;1.40;;;;;;;;;;6046149;29;20104;-87
2022/07/02 07:43:28;;;;;;;2.17;1.20;;;;;;;;;;6044522;29;20053;-87
2022/07/02 07:46:30;;;;;;;2.33;1.00;;;;;;;;;;6042023;29;20029;-87
2022/07/02 07:49:32;;;;;;;2.33;1.00;;;;;;;;;;6050136;29;20093;-87
2022/07/02 07:52:34;;;;;;;3.08;1.00;;;;;;;;;;6033125;29;20072;-92
2022/07/02 07:55:36;;;;;;;1.80;1.00;;;;;;;;;;6054780;29;20109;-91
2022/07/02 07:58:38;;;;;;;1.80;1.00;;;;;;;;;;6029708;29;20038;-92
2022/07/02 08:01:40;;;;;;;1.10;0.80;;;;;;;;;;6024265;29;20057;-91
2022/07/02 08:04:43;;;;;;;1.10;1.00;;;;;;;;;;6031592;29;20493;-91
2022/07/02 08:07:48;;;;;;;2.28;1.08;;;;;;;;;;6031737;29;20042;-93
2022/07/02 08:10:50;;;;;;;;;;;;;;;;;;6041981;29;20070;-92
2022/07/02 08:13:52;;;;;;;2.42;1.17;;;;;;;;;;6049179;29;19975;-92
2022/07/02 08:16:54;;;;;;;1.65;1.10;;;;;;;;;;6023530;29;20047;-92
2022/07/02 08:19:57;;;;;;;1.10;1.00;;;;;;;;;;6026459;29;20029;-92
2022/07/02 08:23:04;;;;;;;1.95;0.98;;;;;;;;;;6046726;29;20426;-92
2022/07/02 08:26:07;;;;;;;1.00;0.90;;;;;;;;;;6032970;29;20045;-92
2022/07/02 08:29:09;;;;;;;1.00;0.85;;;;;;;;;;6025250;29;20531;-92
2022/07/02 08:32:11;;;;;;;1.10;0.90;;;;;;;;;;6014247;29;20062;-90
2022/07/02 08:35:13;;;;;;;2.55;0.85;;;;;;;;;;6032236;29;20053;-91
2022/07/02 08:38:22;;;;;;;2.10;0.85;;;;;;;;;;6026188;29;20097;-92
2022/07/02 08:41:29;;;;;;;3.38;0.80;;;;;;;;;;6018877;24;20102;-79
2022/07/02 08:44:32;;;;;;;2.35;0.80;;;;;;;;;;6020972;29;20128;-79
2022/07/02 08:47:35;;;;;;;1.58;0.80;;;;;;;;;;6014698;29;20493;-78
2022/07/02 08:50:39;;;;;;;1.55;0.88;;;;;;;;;;6021379;29;20059;-79
2022/07/02 08:53:41;;;;;;;1.08;0.68;;;;;;;;;;6027271;29;20111;-80
2022/07/02 08:56:44;;;;;;;2.22;0.70;;;;;;;;;;6042585;29;20128;-78
2022/07/02 08:59:45;;;;;;;;;;;;;;;;;;6040189;29;20393;-80
2022/07/02 09:02:50;;;;;;;1.23;0.70;;;;;;;;;;6021447;29;20006;-81
2022/07/02 09:05:53;;;;;;;1.33;0.98;;;;;;;;;;6041130;29;20053;-79
2022/07/02 09:08:55;;;;;;;;;;;;;;;;;;6047968;29;20493;-80
2022/07/02 09:11:57;;;;;;;0.90;0.60;;;;;;;;;;6039279;29;19960;-80
2022/07/02 09:14:58;;;;;;;1.80;0.82;;;;;;;;;;6027745;29;20211;-79
2022/07/02 09:18:00;;;;;;;2.28;0.80;;;;;;;;;;6024438;29;20082;-78
2022/07/02 09:21:02;;;;;;;2.53;0.70;;;;;;;;;;6043726;29;20038;-79
2022/07/02 09:24:04;;;;;;;1.52;0.70;;;;;;;;;;6045555;29;20128;-80
2022/07/02 09:27:09;;;;;;;2.50;0.80;;;;;;;;;;6027279;29;20073;-79
2022/07/02 09:30:14;;;;;;;1.25;0.80;;;;;;;;;;6029338;29;20056;-79
2022/07/02 09:33:35;;;;;;;1.52;0.77;;;;;;;;;;6029200;29;20045;-80
2022/07/02 09:36:37;;;;;;;1.60;0.90;;;;;;;;;;6031148;29;20472;-80
2022/07/02 09:39:41;;;;;;;1.10;1.00;;;;;;;;;;6016420;29;20128;-78
2022/07/02 09:42:47;;;;;;;1.55;1.02;;;;;;;;;;6043905;29;20127;-79
2022/07/02 09:45:49;;;;;;;2.15;1.02;;;;;;;;;;6035785;29;20060;-82
2022/07/02 09:48:51;;;;;;;1.13;0.83;;;;;;;;;;6051876;29;20350;-80
2022/07/02 09:51:53;;;;;;;1.63;1.08;;;;;;;;;;6055423;29;20602;-79
2022/07/02 09:54:55;;;;;;;;;;;;;;;;;;6055784;29;20041;-79
2022/07/02 09:58:01;;;;;;;3.40;0.65;;;;;;;;;;6031844;29;19923;-79
2022/07/02 10:01:03;;;;;;;1.77;0.70;;;;;;;;;;6052530;29;20289;-79
2022/07/02 10:04:05;;;;;;;;;;;;;;;;;;6022753;29;20057;-80
2022/07/02 10:07:07;;;;;;;2.38;0.70;;;;;;;;;;6049758;29;19932;-79
2022/07/02 10:10:09;;;;;;;1.23;0.90;;;;;;;;;;6035784;29;20114;-79
2022/07/02 10:13:12;;;;;;;2.95;0.90;;;;;;;;;;6034031;29;20136;-79
2022/07/02 10:16:17;;;;;;;1.70;0.95;;;;;;;;;;6046005;29;20076;-81
2022/07/02 10:19:20;;;;;;;1.83;1.25;;;;;;;;;;6048053;29;20409;-80
2022/07/02 10:22:22;;;;;;;2.70;1.30;;;;;;;;;;6035547;29;20053;-79
2022/07/02 10:25:24;;;;;;;;;;;;;;;;;;6053915;29;20049;-79
2022/07/02 10:28:26;;;;;;;2.03;1.25;;;;;;;;;;6047291;29;19985;-80
2022/07/02 10:31:32;;;;;;;1.93;1.37;;;;;;;;;;6051790;29;20096;-81
2022/07/02 10:34:47;;;;;;;1.50;1.10;;;;;;;;;;6033737;29;20045;-80
2022/07/02 10:37:56;;;;;;;1.98;1.10;;;;;;;;;;6035182;29;20584;-80
2022/07/02 10:40:57;;;;;;;1.13;0.90;;;;;;;;;;6050051;29;20041;-78
2022/07/02 10:44:00;;;;;;;1.52;1.10;;;;;;;;;;6048969;29;20093;-81
2022/07/02 10:47:01;;;;;;;1.20;1.10;;;;;;;;;;6038078;29;20052;-82
2022/07/02 10:50:04;;;;;;;2.13;1.10;;;;;;;;;;6039049;29;20053;-81
2022/07/02 10:53:10;;;;;;;1.77;1.25;;;;;;;;;;6039121;29;20041;-81
2022/07/02 10:56:11;;;;;;;1.13;1.02;;;;;;;;;;6023909;29;20078;-81
2022/07/02 10:59:35;;;;;;;1.37;1.10;;;;;;;;;;6043987;29;20462;-81
2022/07/02 11:02:37;;;;;;;1.80;1.05;;;;;;;;;;6034642;29;20045;-81
2022/07/02 11:06:02;;;;;;;1.43;1.10;;;;;;;;;;6025526;29;20109;-81
2022/07/02 11:09:06;;;;;;;1.05;1.00;;;;;;;;;;6038661;29;20552;-83
2022/07/02 11:12:08;;;;;;;1.45;0.90;;;;;;;;;;6052205;29;20149;-81
2022/07/02 11:15:18;;;;;;;2.22;1.10;;;;;;;;;;6037808;29;20081;-81
2022/07/02 11:18:22;;;;;;;1.10;1.00;;;;;;;;;;6046717;29;20178;-81
2022/07/02 11:21:25;;;;;;;2.30;1.08;;;;;;;;;;6032844;29;20525;-81
2022/07/02 11:24:31;;;;;;;1.77;1.13;;;;;;;;;;6033510;29;20131;-82
2022/07/02 11:27:33;;;;;;;0.98;0.85;;;;;;;;;;6038462;29;20073;-82
2022/07/02 11:30:35;;;;;;;2.00;1.00;;;;;;;;;;6050158;29;20083;-81
2022/07/02 11:33:42;;;;;;;3.40;1.10;;;;;;;;;;6016631;29;20105;-82
2022/07/02 11:36:43;;;;;;;1.88;1.00;;;;;;;;;;6054103;29;20116;-82
2022/07/02 11:39:45;;;;;;;2.15;1.15;;;;;;;;;;6032085;29;20361;-83
2022/07/02 11:42:47;;;;;;;2.03;1.10;;;;;;;;;;6013850;29;20053;-82
2022/07/02 11:45:48;;;;;;;1.30;1.08;;;;;;;;;;6051212;29;20049;-83
2022/07/02 11:48:51;;;;;;;1.83;0.80;;;;;;;;;;6051886;29;20056;-82
2022/07/02 11:51:54;;;;;;;1.70;0.90;;;;;;;;;;6033615;29;20135;-81
2022/07/02 11:54:56;;;;;;;1.13;1.00;;;;;;;;;;6044380;29;20045;-81
2022/07/02 11:57:58;;;;;;;1.42;0.90;;;;;;;;;;6048537;29;20090;-82
2022/07/02 12:01:00;;;;;;;1.23;1.02;;;;;;;;;;6035711;29;20052;-82
2022/07/02 12:04:04;;;;;;;1.80;0.93;;;;;;;;;;6013522;29;20072;-83
2022/07/02 12:07:06;;;;;;;1.08;0.80;;;;;;;;;;6033124;29;20460;-80
2022/07/02 12:10:13;;;;;;;2.05;0.93;;;;;;;;;;6016839;29;20113;-80
2022/07/02 12:13:15;;;;;;;2.25;0.80;;;;;;;;;;5999576;29;20114;-80
2022/07/02 12:16:24;;;;;;;2.53;0.93;;;;;;;;;;6024630;29;20142;-81
2022/07/02 12:19:31;;;;;;;2.50;0.98;;;;;;;;;;5988452;29;20041;-82
2022/07/02 12:22:37;;;;;;;1.73;0.90;;;;;;;;;;6001136;29;20368;-81
2022/07/02 12:25:47;;;;;;;0.75;0.70;;;;;;;;;;6022871;29;20125;-80
2022/07/02 12:32:38;;;;;;;1.58;0.82;;;;;;;;;;6018272;29;20099;-83
2022/07/02 12:35:40;;;;;;;0.70;0.70;;;;;;;;;;6021671;29;20222;-83
2022/07/02 12:38:43;;;;;;;1.27;0.80;;;;;;;;;;6031588;29;20057;-84
2022/07/02 12:41:45;;;;;;;3.88;0.90;;;;;;;;;;6013922;29;20056;-83
2022/07/02 12:45:33;;;;;;;1.17;0.80;;;;;;;;;;5993065;29;20041;-85
2022/07/02 12:48:43;;;;;;;2.83;0.88;;;;;;;;;;5996932;29;20537;-82
2022/07/02 12:51:53;;;;;;;0.60;0.60;;;;;;;;;;6002672;29;20638;-83
2022/07/02 12:54:55;;;;;;;1.67;0.70;;;;;;;;;;6022810;29;20057;-84
2022/07/02 12:57:59;;;;;;;2.58;0.80;;;;;;;;;;6000170;29;20054;-84
2022/07/02 13:01:01;;;;;;;1.02;0.68;;;;;;;;;;5997912;29;20573;-81
2022/07/02 13:04:03;;;;;;;0.75;0.75;;;;;;;;;;6024219;29;20053;-81
2022/07/02 13:07:04;;;;;;;0.93;0.80;;;;;;;;;;6018734;29;20123;-81
2022/07/02 13:10:06;;;;;;;1.27;0.65;;;;;;;;;;6016937;29;20197;-83
2022/07/02 13:13:08;;;;;;;1.65;0.70;;;;;;;;;;5989551;29;20533;-84
2022/07/02 13:16:10;;;;;;;4.07;0.90;;;;;;;;;;6009197;29;20473;-84
2022/07/02 13:19:11;;;;;;;1.35;0.90;;;;;;;;;;5991797;29;20143;-83
2022/07/02 13:22:16;;;;;;;1.52;0.95;;;;;;;;;;6026993;29;20121;-84
2022/07/02 13:25:18;;;;;;;2.60;1.00;;;;;;;;;;6013513;29;20045;-83
2022/07/02 13:28:20;;;;;;;0.90;0.80;;;;;;;;;;6020018;29;20056;-83
2022/07/02 13:31:22;;;;;;;2.38;0.88;;;;;;;;;;6029260;29;20141;-83
2022/07/02 13:34:23;;;;;;;0.93;0.85;;;;;;;;;;6012758;29;20125;-85
2022/07/02 13:37:25;;;;;;;0.85;0.70;;;;;;;;;;6014342;29;20061;-83
2022/07/02 13:40:27;;;;;;;2.60;0.80;;;;;;;;;;6012285;29;20587;-85
2022/07/02 13:43:28;;;;;;;2.58;0.80;;;;;;;;;;5998228;29;20049;-84
2022/07/02 13:46:30;;;;;;;3.90;1.10;;;;;;;;;;6028862;29;20053;-85
2022/07/02 13:49:34;;;;;;;1.85;1.00;;;;;;;;;;6026271;29;20068;-84
2022/07/02 13:52:35;;;;;;;1.15;0.90;;;;;;;;;;6033501;29;20046;-85
2022/07/02 13:55:40;;;;;;;2.50;0.90;;;;;;;;;;6007879;29;20037;-84
2022/07/02 13:58:48;;;;;;;1.13;1.00;;;;;;;;;;6010806;29;20065;-84
2022/07/02 14:01:51;;;;;;;1.90;0.80;;;;;;;;;;5999807;29;20152;-86
2022/07/02 14:04:53;;;;;;;1.38;0.70;;;;;;;;;;6013932;29;20086;-85
2022/07/02 14:07:55;;;;;;;1.63;0.98;;;;;;;;;;6007396;29;20061;-85
2022/07/02 14:10:57;;;;;;;2.42;0.90;;;;;;;;;;6005155;29;20142;-82
2022/07/02 14:13:58;;;;;;;1.38;0.80;;;;;;;;;;6001865;29;20081;-83
2022/07/02 14:17:00;;;;;;;2.67;0.80;;;;;;;;;;6007185;29;20049;-80
2022/07/02 14:20:02;;;;;;;1.75;0.90;;;;;;;;;;6027892;29;20053;-81
2022/07/02 14:23:24;;;;;;;0.70;0.70;;;;;;;;;;6015514;29;20061;-80
2022/07/02 14:26:25;;;;;;;1.15;0.60;;;;;;;;;;6025781;29;20050;-82
2022/07/02 14:29:27;;;;;;;1.40;0.70;;;;;;;;;;6008394;29;20056;-81
2022/07/02 14:32:29;;;;;;;1.33;0.82;;;;;;;;;;6021811;29;20082;-78
2022/07/02 14:35:30;;;;;;;1.13;0.70;;;;;;;;;;5982062;29;20156;-77
2022/07/02 14:38:32;;;;;;;1.30;0.70;;;;;;;;;;6000291;29;20057;-78
2022/07/02 14:41:34;;;;;;;1.15;0.90;;;;;;;;;;6025175;29;20123;-79
2022/07/02 14:44:36;;;;;;;4.18;0.75;;;;;;;;;;6026987;29;20049;-77
2022/07/02 14:47:38;;;;;;;1.25;0.80;;;;;;;;;;6025809;29;20283;-78
2022/07/02 14:50:40;;;;;;;3.10;0.73;;;;;;;;;;6029120;29;20505;-77
2022/07/02 14:53:41;;;;;;;2.20;0.90;;;;;;;;;;6028025;29;20140;-78
2022/07/02 14:56:43;;;;;;;1.63;0.88;;;;;;;;;;6024051;29;20121;-82
2022/07/02 14:59:45;;;;;;;0.82;0.60;;;;;;;;;;6025550;29;20077;-78
2022/07/02 15:02:46;;;;;;;0.93;0.80;;;;;;;;;;6023962;29;20045;-78
2022/07/02 15:05:48;;;;;;;0.95;0.80;;;;;;;;;;6022659;29;20056;-80
2022/07/02 15:08:50;;;;;;;1.38;0.65;;;;;;;;;;6007920;29;20057;-79
2022/07/02 15:11:51;;;;;;;1.52;0.70;;;;;;;;;;5999173;29;20135;-79
2022/07/02 15:18:14;;;;;;;1.58;0.90;;;;;;;;;;6015600;29;20509;-81
2022/07/02 15:21:19;;;;;;;1.20;0.50;;;;;;;;;;6025158;29;20069;-80
2022/07/02 15:24:25;;;;;;;0.50;0.50;;;;;;;;;;6005177;29;20053;-83
2022/07/02 15:27:27;;;;;;;1.77;0.70;;;;;;;;;;6006001;29;20049;-81
2022/07/02 15:30:31;;;;;;;1.00;0.68;;;;;;;;;;6007725;29;20051;-81
2022/07/02 15:33:34;;;;;;;0.80;0.73;;;;;;;;;;6024790;29;20049;-81
2022/07/02 15:36:36;;;;;;;0.70;0.65;;;;;;;;;;6024881;29;20052;-83
2022/07/02 15:39:41;;;;;;;1.42;0.65;;;;;;;;;;6025844;29;20110;-80
2022/07/02 15:42:43;;;;;;;1.52;0.90;;;;;;;;;;6022956;29;20745;-81
2022/07/02 15:45:45;;;;;;;;;;;;;;;;;;6010218;29;20145;-83
2022/07/02 15:48:49;;;;;;;0.77;0.70;;;;;;;;;;6023641;29;19924;-83
2022/07/02 15:51:54;;;;;;;1.13;0.80;;;;;;;;;;6007934;29;20090;-83
2022/07/02 15:55:04;;;;;;;1.15;0.90;;;;;;;;;;6028716;29;20125;-83
2022/07/02 15:58:17;;;;;;;1.30;0.82;;;;;;;;;;6024198;29;20045;-84
2022/07/02 16:01:20;;;;;;;2.00;0.70;;;;;;;;;;6028723;29;20065;-83
2022/07/02 16:04:30;;;;;;;2.03;0.90;;;;;;;;;;6023876;29;20054;-81
2022/07/02 16:07:44;;;;;;;1.05;0.90;;;;;;;;;;6024467;29;20042;-82
2022/07/02 16:10:45;;;;;;;1.30;0.93;;;;;;;;;;6027077;29;20149;-82
2022/07/02 16:13:47;;;;;;;0.85;0.80;;;;;;;;;;6009912;29;20065;-83
2022/07/02 16:16:57;;;;;;;0.80;0.77;;;;;;;;;;6024631;29;20053;-81
2022/07/02 16:19:59;;;;;;;3.03;0.85;;;;;;;;;;6024157;29;20314;-83
2022/07/02 16:23:00;;;;;;;1.13;0.80;;;;;;;;;;6026870;29;20082;-82
2022/07/02 16:26:02;;;;;;;0.98;0.80;;;;;;;;;;6025383;29;20544;-83
2022/07/02 16:29:04;;;;;;;0.85;0.85;;;;;;;;;;6002971;29;20793;-82
2022/07/02 16:32:08;;;;;;;0.93;0.93;;;;;;;;;;6007603;29;20065;-82
2022/07/02 16:35:12;;;;;;;1.42;0.70;;;;;;;;;;6024386;29;20045;-83
2022/07/02 16:38:17;;;;;;;1.17;0.80;;;;;;;;;;5995261;29;20540;-81
2022/07/02 16:41:22;;;;;;;2.22;1.00;;;;;;;;;;6029936;29;20087;-83
2022/07/02 16:44:38;;;;;;;1.10;0.93;;;;;;;;;;6020956;29;20528;-80
2022/07/02 16:47:42;;;;;;;1.45;0.93;;;;;;;;;;6020167;29;20106;-81
2022/07/02 16:50:46;;;;;;;1.42;0.93;;;;;;;;;;6014652;29;20139;-80
2022/07/02 16:53:48;;;;;;;1.20;1.10;;;;;;;;;;6031188;29;20139;-81
2022/07/02 16:56:50;;;;;;;;;;;;;;;;;;6026484;29;20069;-80
2022/07/02 16:59:53;;;;;;;0.87;0.87;;;;;;;;;;6027368;29;20311;-81
2022/07/02 17:02:56;;;;;;;0.98;0.88;;;;;;;;;;6000781;29;20045;-81
2022/07/02 17:05:58;;;;;;;1.15;1.10;;;;;;;;;;6030008;29;20069;-82
2022/07/02 17:09:00;;;;;;;1.63;1.00;;;;;;;;;;6011417;29;20129;-81
2022/07/02 17:12:02;;;;;;;0.80;0.80;;;;;;;;;;6004444;29;20129;-80
2022/07/02 17:15:04;;;;;;;1.00;1.00;;;;;;;;;;6010663;29;20113;-80
2022/07/02 17:18:11;;;;;;;1.85;1.08;;;;;;;;;;5989679;29;20129;-79
2022/07/02 17:21:13;;;;;;;;;;;;;;;;;;5987943;29;20067;-78
2022/07/02 17:24:15;;;;;;;1.10;1.00;;;;;;;;;;6006218;29;19931;-77
2022/07/02 17:27:16;;;;;;;1.45;1.00;;;;;;;;;;6018904;29;20056;-77
2022/07/02 17:30:18;;;;;;;2.35;1.48;;;;;;;;;;5999763;29;20045;-80
2022/07/02 17:33:20;;;;;;;1.30;1.20;;;;;;;;;;6023737;29;20045;-82
2022/07/02 17:36:22;;;;;;;1.70;1.60;;;;;;;;;;6008723;29;20109;-80
2022/07/02 17:39:23;;;;;;;1.30;1.20;;;;;;;;;;6028336;29;20148;-77
2022/07/02 17:42:25;;;;;;;1.38;1.17;;;;;;;;;;6006922;29;20133;-78
2022/07/02 17:45:27;;;;;;;1.25;1.15;;;;;;;;;;6019311;29;20134;-76
2022/07/02 17:48:29;;;;;;;1.70;1.10;;;;;;;;;;6003046;29;20256;-78
2022/07/02 17:51:30;;;;;;;1.10;1.00;;;;;;;;;;6011587;29;20050;-76
2022/07/02 17:54:32;;;;;;;1.67;1.20;;;;;;;;;;6022928;29;20105;-78
2022/07/02 17:57:34;;;;;;;2.05;1.17;;;;;;;;;;6019169;29;20069;-77
2022/07/02 18:00:38;;;;;;;1.33;1.10;;;;;;;;;;6026554;29;20057;-78
2022/07/02 18:03:40;;;;;;;1.55;1.40;;;;;;;;;;6030241;29;20098;-78
2022/07/02 18:06:42;;;;;;;1.95;1.33;;;;;;;;;;6027037;29;20138;-80
2022/07/02 18:09:44;;;;;;;2.87;1.60;;;;;;;;;;6021790;29;20061;-79
2022/07/02 18:12:46;;;;;;;1.95;1.17;;;;;;;;;;6012223;29;20042;-78
2022/07/02 18:15:50;;;;;;;1.48;1.13;;;;;;;;;;6003646;29;20081;-79
2022/07/02 18:18:52;;;;;;;1.58;1.00;;;;;;;;;;6018451;29;20125;-80
2022/07/02 18:21:54;;;;;;;3.10;1.10;;;;;;;;;;6018428;29;20087;-80
2022/07/02 18:24:56;;;;;;;1.65;1.00;;;;;;;;;;5988299;29;20177;-81
2022/07/02 18:27:59;;;;;;;1.02;1.00;;;;;;;;;;5999455;29;20412;-81
2022/07/02 18:31:00;;;;;;;1.27;1.10;;;;;;;;;;6000825;29;20060;-80
2022/07/02 18:34:05;;;;;;;1.30;1.20;;;;;;;;;;6019100;29;20129;-80